createdAt,value
2022-11-21T00:00:30.820Z,33.80
2022-11-21T00:03:01.523Z,34.55
2022-11-21T00:05:29.371Z,36.83
2022-11-21T00:07:56.671Z,35.50
2022-11-21T00:10:23.907Z,35.42
2022-11-21T00:12:57.456Z,39.28
2022-11-21T00:15:26.292Z,36.88
2022-11-21T00:17:53.154Z,34.53
2022-11-21T00:20:21.206Z,36.30
2022-11-21T00:22:48.392Z,33.83
2022-11-21T00:25:15.439Z,33.83
2022-11-21T00:27:41.944Z,31.70
2022-11-21T00:30:13.832Z,31.77
2022-11-21T00:32:40.300Z,33.80
2022-11-21T00:35:07.442Z,36.88
2022-11-21T00:37:34.740Z,32.72
2022-11-21T00:40:01.286Z,38.15
2022-11-21T00:42:27.783Z,34.95
2022-11-21T00:44:54.209Z,33.83
2022-11-21T00:47:20.692Z,34.58
2022-11-21T00:49:47.153Z,36.58
2022-11-21T00:52:13.835Z,34.50
2022-11-21T00:54:40.304Z,35.63
2022-11-21T00:57:06.810Z,38.53
2022-11-21T00:59:33.571Z,35.05
2022-11-21T01:02:00.008Z,35.40
2022-11-21T01:04:26.861Z,37.47
2022-11-21T01:06:54.051Z,35.20
2022-11-21T01:09:20.521Z,37.25
2022-11-21T01:11:46.994Z,29.58
2022-11-21T01:14:13.539Z,35.22
2022-11-21T01:16:39.995Z,35.90
2022-11-21T01:19:06.544Z,36.28
2022-11-21T01:21:33.101Z,34.55
2022-11-21T01:24:01.033Z,34.08
2022-11-21T01:26:28.795Z,31.98
2022-11-21T01:28:55.304Z,32.33
2022-11-21T01:31:24.590Z,36.13
2022-11-21T01:33:51.404Z,33.83
2022-11-21T01:36:24.771Z,35.05
2022-11-21T01:38:53.178Z,31.48
2022-11-21T01:41:22.612Z,33.78
2022-11-21T01:43:50.161Z,36.05
2022-11-21T01:46:19.686Z,33.05
2022-11-21T01:48:58.582Z,34.58
2022-11-21T01:51:38.377Z,35.88
2022-11-21T01:54:20.125Z,33.15
2022-11-21T01:56:55.436Z,34.17
2022-11-21T01:59:29.616Z,33.30
2022-11-21T02:01:59.439Z,35.33
2022-11-21T02:04:30.501Z,34.88
2022-11-21T02:06:58.408Z,35.03
2022-11-21T02:09:25.511Z,31.90
2022-11-21T02:11:58.369Z,35.78
2022-11-21T02:14:26.329Z,32.97
2022-11-21T02:16:56.317Z,34.00
2022-11-21T02:19:33.860Z,34.55
2022-11-21T02:22:12.738Z,36.30
2022-11-21T02:25:00.725Z,36.00
2022-11-21T02:27:28.096Z,36.30
2022-11-21T02:29:54.959Z,35.80
2022-11-21T02:32:23.417Z,35.67
2022-11-21T02:34:49.948Z,32.95
2022-11-21T02:37:17.970Z,37.42
2022-11-21T02:39:47.546Z,37.72
2022-11-21T02:42:24.131Z,35.45
2022-11-21T02:45:05.767Z,32.63
2022-11-21T02:47:34.045Z,35.22
2022-11-21T02:50:07.430Z,33.90
2022-11-21T02:52:33.984Z,38.53
2022-11-21T02:55:00.380Z,36.83
2022-11-21T02:57:26.806Z,44.15
2022-11-21T02:59:53.236Z,37.25
2022-11-21T03:02:19.655Z,38.15
2022-11-21T03:04:46.099Z,37.88
2022-11-21T03:07:12.656Z,38.05
2022-11-21T03:09:39.143Z,40.70
2022-11-21T03:12:07.260Z,41.60
2022-11-21T03:14:34.989Z,40.50
2022-11-21T03:17:02.050Z,39.60
2022-11-21T03:19:28.522Z,40.33
2022-11-21T03:21:55.330Z,34.97
2022-11-21T03:24:22.232Z,36.20
2022-11-21T03:26:48.698Z,35.10
2022-11-21T03:29:15.122Z,38.95
2022-11-21T03:31:41.609Z,36.10
2022-11-21T03:34:08.888Z,35.85
2022-11-21T03:36:35.294Z,37.20
2022-11-21T03:39:01.895Z,35.75
2022-11-21T03:41:31.048Z,37.40
2022-11-21T03:44:05.695Z,38.97
2022-11-21T03:46:34.339Z,40.90
2022-11-21T03:49:00.850Z,38.90
2022-11-21T03:51:28.012Z,41.08
2022-11-21T03:53:54.585Z,34.60
2022-11-21T03:56:21.262Z,36.25
2022-11-21T03:58:47.917Z,38.38
2022-11-21T04:01:15.171Z,38.28
2022-11-21T04:03:45.282Z,38.33
2022-11-21T04:06:14.089Z,39.97
2022-11-21T04:08:40.911Z,38.75
2022-11-21T04:11:08.183Z,44.00
2022-11-21T04:13:35.055Z,40.63
2022-11-21T04:16:02.209Z,40.70
2022-11-21T04:18:28.628Z,42.30
2022-11-21T04:20:59.747Z,38.35
2022-11-21T04:23:26.723Z,38.30
2022-11-21T04:25:53.595Z,40.60
2022-11-21T04:28:20.422Z,39.92
2022-11-21T04:30:46.922Z,40.63
2022-11-21T04:33:15.285Z,44.38
2022-11-21T04:35:43.037Z,41.30
2022-11-21T04:38:09.767Z,43.33
2022-11-21T04:40:36.889Z,41.47
2022-11-21T04:43:04.055Z,43.53
2022-11-21T04:45:30.980Z,39.70
2022-11-21T04:47:57.719Z,44.55
2022-11-21T04:50:24.486Z,41.80
2022-11-21T04:52:55.778Z,44.45
2022-11-21T04:55:24.805Z,44.35
2022-11-21T04:57:51.598Z,45.15
2022-11-21T05:00:23.967Z,51.53
2022-11-21T05:02:51.083Z,53.55
2022-11-21T05:05:17.654Z,48.05
2022-11-21T05:07:44.162Z,52.40
2022-11-21T05:10:10.707Z,53.33
2022-11-21T05:12:57.410Z,53.10
2022-11-21T05:15:25.088Z,55.75
2022-11-21T05:17:52.073Z,48.97
2022-11-21T05:20:19.026Z,54.38
2022-11-21T05:22:49.899Z,56.17
2022-11-21T05:25:16.620Z,50.95
2022-11-21T05:27:43.225Z,58.90
2022-11-21T05:30:10.963Z,57.20
2022-11-21T05:32:37.923Z,54.67
2022-11-21T05:35:04.624Z,59.72
2022-11-21T05:37:31.042Z,51.67
2022-11-21T05:39:57.553Z,51.72
2022-11-21T05:42:44.007Z,51.42
2022-11-21T05:45:10.757Z,50.45
2022-11-21T05:47:37.317Z,50.38
2022-11-21T05:50:04.181Z,54.20
2022-11-21T05:52:30.632Z,53.28
2022-11-21T05:54:57.055Z,53.25
2022-11-21T05:57:23.482Z,56.83
2022-11-21T05:59:49.905Z,51.47
2022-11-21T06:02:35.013Z,55.85
2022-11-21T06:05:01.502Z,52.05
2022-11-21T06:07:27.984Z,58.10
2022-11-21T06:09:54.427Z,51.50
2022-11-21T06:12:25.236Z,59.03
2022-11-21T06:14:52.410Z,57.10
2022-11-21T06:17:18.875Z,58.60
2022-11-21T06:19:45.302Z,61.88
2022-11-21T06:22:11.715Z,67.28
2022-11-21T06:24:38.166Z,56.97
2022-11-21T06:27:04.606Z,63.60
2022-11-21T06:29:31.074Z,59.40
2022-11-21T06:31:57.520Z,59.65
2022-11-21T06:34:26.458Z,59.92
2022-11-21T06:36:53.406Z,69.40
2022-11-21T06:39:19.841Z,64.00
2022-11-21T06:41:51.102Z,61.78
2022-11-21T06:44:18.769Z,57.20
2022-11-21T06:46:50.765Z,61.47
2022-11-21T06:49:17.986Z,68.82
2022-11-21T06:51:44.463Z,61.38
2022-11-21T06:54:15.243Z,68.40
2022-11-21T06:56:43.324Z,62.35
2022-11-21T06:59:09.826Z,68.20
2022-11-21T07:01:36.359Z,63.20
2022-11-21T07:04:02.892Z,68.18
2022-11-21T07:06:29.336Z,60.45
2022-11-21T07:11:42.667Z,67.93
2022-11-21T07:14:09.609Z,73.70
2022-11-21T07:16:36.663Z,67.18
2022-11-21T07:19:03.263Z,74.38
2022-11-21T07:21:29.714Z,77.07
2022-11-21T07:23:56.145Z,59.58
2022-11-21T07:26:22.575Z,63.75
2022-11-21T07:28:49.077Z,69.63
2022-11-21T07:31:15.753Z,73.07
2022-11-21T07:33:46.806Z,66.55
2022-11-21T07:36:13.814Z,75.20
2022-11-21T07:38:41.606Z,71.32
2022-11-21T07:41:08.959Z,68.53
2022-11-21T07:43:35.562Z,70.03
2022-11-21T07:46:02.036Z,66.15
2022-11-21T07:48:28.507Z,63.97
2022-11-21T07:50:54.912Z,73.88
2022-11-21T07:53:21.578Z,73.22
2022-11-21T07:55:48.017Z,72.50
2022-11-21T07:58:16.582Z,65.65
2022-11-21T08:00:43.341Z,70.10
2022-11-21T08:03:12.177Z,71.78
2022-11-21T08:05:43.402Z,81.43
2022-11-21T08:08:14.126Z,78.65
2022-11-21T08:10:45.345Z,69.35
2022-11-21T08:13:12.885Z,72.05
2022-11-21T08:15:40.174Z,70.93
2022-11-21T08:18:10.706Z,78.13
2022-11-21T08:20:37.190Z,68.88
2022-11-21T08:23:04.050Z,71.03
2022-11-21T08:25:30.501Z,65.43
2022-11-21T08:27:58.433Z,80.88
2022-11-21T08:30:25.413Z,72.28
2022-11-21T08:32:52.000Z,71.03
2022-11-21T08:35:19.100Z,75.80
2022-11-21T08:37:45.570Z,78.13
2022-11-21T08:40:12.022Z,74.65
2022-11-21T08:42:38.577Z,70.70
2022-11-21T08:45:05.795Z,70.78
2022-11-21T08:47:35.388Z,72.15
2022-11-21T08:50:07.419Z,66.32
2022-11-21T08:52:35.435Z,60.75
2022-11-21T08:55:01.857Z,75.20
2022-11-21T08:57:28.314Z,66.80
2022-11-21T08:59:54.800Z,66.65
2022-11-21T09:02:21.250Z,68.20
2022-11-21T09:04:47.761Z,69.93
2022-11-21T09:07:14.360Z,65.93
2022-11-21T09:09:40.864Z,73.68
2022-11-21T09:12:07.426Z,65.32
2022-11-21T09:14:52.197Z,66.32
2022-11-21T09:17:37.147Z,61.10
2022-11-21T09:20:03.993Z,74.95
2022-11-21T09:22:30.448Z,73.13
2022-11-21T09:24:56.921Z,74.35
2022-11-21T09:27:23.402Z,80.75
2022-11-21T09:29:54.095Z,81.30
2022-11-21T09:32:21.129Z,69.97
2022-11-21T09:34:47.687Z,71.10
2022-11-21T09:37:14.199Z,70.45
2022-11-21T09:39:40.696Z,64.20
2022-11-21T09:42:28.562Z,59.03
2022-11-21T09:45:05.127Z,64.78
2022-11-21T09:47:31.510Z,59.85
2022-11-21T09:50:07.416Z,68.95
2022-11-21T09:53:11.806Z,71.07
2022-11-21T09:55:52.833Z,72.30
2022-11-21T09:58:28.088Z,67.47
2022-11-21T10:03:39.805Z,67.70
2022-11-21T10:06:18.800Z,67.30
2022-11-21T10:09:04.008Z,71.00
2022-11-21T10:11:59.351Z,53.05
2022-11-21T10:14:53.118Z,76.35
2022-11-21T10:18:04.456Z,78.32
2022-11-21T10:20:55.801Z,70.65
2022-11-21T10:23:41.075Z,79.38
2022-11-21T10:26:15.098Z,90.65
2022-11-21T10:28:50.117Z,66.43
2022-11-21T10:31:18.106Z,73.20
2022-11-21T10:33:45.554Z,79.30
2022-11-21T10:36:11.972Z,80.43
2022-11-21T10:38:41.252Z,79.05
2022-11-21T10:41:19.666Z,81.10
2022-11-21T10:44:15.412Z,80.65
2022-11-21T10:46:55.003Z,87.50
2022-11-21T10:49:21.648Z,72.97
2022-11-21T10:52:07.936Z,81.22
2022-11-21T10:55:05.155Z,87.38
2022-11-21T10:57:36.962Z,88.80
2022-11-21T11:00:12.568Z,93.18
2022-11-21T11:03:00.266Z,88.47
2022-11-21T11:05:28.461Z,87.07
2022-11-21T11:08:01.421Z,84.18
2022-11-21T11:10:28.989Z,85.13
2022-11-21T11:13:44.501Z,92.05
2022-11-21T11:16:04.541Z,84.47
2022-11-21T11:18:34.675Z,95.68
2022-11-21T11:21:23.550Z,91.03
2022-11-21T11:23:52.040Z,92.53
2022-11-21T11:26:30.497Z,95.20
2022-11-21T11:29:13.326Z,72.25
2022-11-21T11:31:52.733Z,71.50
2022-11-21T11:34:19.488Z,83.40
2022-11-21T11:36:56.247Z,81.40
2022-11-21T11:39:39.837Z,82.82
2022-11-21T11:42:43.165Z,72.43
2022-11-21T11:45:42.669Z,72.03
2022-11-21T11:48:13.172Z,70.70
2022-11-21T11:50:50.095Z,71.60
2022-11-21T11:53:34.907Z,75.20
2022-11-21T11:56:08.708Z,63.53
2022-11-21T11:59:00.886Z,70.45
2022-11-21T12:01:35.667Z,73.85
2022-11-21T12:04:15.729Z,70.88
2022-11-21T12:08:20.010Z,59.20
2022-11-21T12:09:56.173Z,65.80
2022-11-21T12:12:25.545Z,67.13
2022-11-21T12:15:22.920Z,63.15
2022-11-21T12:18:20.790Z,65.00
2022-11-21T12:20:50.280Z,60.30
2022-11-21T12:23:18.100Z,60.47
2022-11-21T12:25:52.907Z,62.17
2022-11-21T12:28:31.658Z,67.82
2022-11-21T12:31:18.566Z,52.78
2022-11-21T12:34:10.008Z,50.42
2022-11-21T12:37:03.782Z,52.20
2022-11-21T12:39:49.111Z,49.30
2022-11-21T12:42:51.578Z,48.30
2022-11-21T12:45:37.793Z,40.13
2022-11-21T12:49:04.091Z,49.75
2022-11-21T12:52:14.158Z,39.63
2022-11-21T12:54:57.533Z,36.20
2022-11-21T12:57:57.554Z,41.67
2022-11-21T13:00:57.439Z,38.08
2022-11-21T13:04:15.608Z,36.47
2022-11-21T13:06:44.574Z,35.22
2022-11-21T13:09:17.741Z,29.05
2022-11-21T13:11:59.992Z,37.67
2022-11-21T13:14:40.608Z,34.63
2022-11-21T13:17:49.572Z,33.58
2022-11-21T13:20:28.121Z,31.83
2022-11-21T13:22:59.494Z,30.83
2022-11-21T13:25:31.911Z,30.83
2022-11-21T13:28:13.135Z,31.27
2022-11-21T13:30:49.686Z,32.90
2022-11-21T13:33:34.436Z,31.17
2022-11-21T13:36:03.860Z,29.58
2022-11-21T13:38:30.389Z,23.02
2022-11-21T13:41:15.110Z,26.02
2022-11-21T13:43:41.670Z,28.83
2022-11-21T13:46:08.230Z,25.02
2022-11-21T13:49:02.066Z,24.42
2022-11-21T13:51:47.882Z,24.75
2022-11-21T13:54:29.286Z,24.48
2022-11-21T13:57:16.173Z,22.75
2022-11-21T13:59:51.846Z,24.52
2022-11-21T14:02:33.673Z,28.02
2022-11-21T14:05:24.691Z,26.02
2022-11-21T14:07:51.443Z,24.67
2022-11-21T14:10:25.881Z,26.20
2022-11-21T14:12:55.420Z,21.08
2022-11-21T14:15:31.120Z,25.60
2022-11-21T14:17:59.198Z,26.52
2022-11-21T14:20:28.757Z,24.95
2022-11-21T14:22:58.284Z,27.15
2022-11-21T14:25:31.607Z,25.10
2022-11-21T14:27:58.832Z,35.90
2022-11-21T14:30:31.086Z,23.50
2022-11-21T14:33:14.393Z,24.45
2022-11-21T14:35:40.961Z,25.05
2022-11-21T14:38:07.473Z,29.67
2022-11-21T14:40:34.000Z,26.73
2022-11-21T14:43:01.182Z,26.00
2022-11-21T14:45:27.608Z,27.05
2022-11-21T14:47:54.518Z,28.52
2022-11-21T14:50:33.494Z,25.95
2022-11-21T14:53:01.892Z,23.38
2022-11-21T14:55:31.648Z,24.83
2022-11-21T14:58:01.416Z,28.83
2022-11-21T15:00:58.151Z,23.70
2022-11-21T15:03:24.000Z,22.63
2022-11-21T15:06:05.792Z,27.23
2022-11-21T15:09:33.426Z,22.70
2022-11-21T15:12:07.838Z,26.70
2022-11-21T15:14:48.522Z,25.25
2022-11-21T15:17:20.447Z,29.25
2022-11-21T15:19:47.317Z,30.35
2022-11-21T15:22:26.254Z,33.42
2022-11-21T15:25:06.914Z,26.05
2022-11-21T15:27:34.096Z,34.55
2022-11-21T15:30:24.982Z,26.73
2022-11-21T15:33:10.107Z,29.08
2022-11-21T15:35:39.573Z,26.17
2022-11-21T15:38:24.329Z,29.25
2022-11-21T15:41:04.849Z,28.40
2022-11-21T15:43:44.841Z,25.60
2022-11-21T15:46:26.235Z,23.55
2022-11-21T15:48:57.669Z,27.67
2022-11-21T15:51:51.199Z,25.35
2022-11-21T15:54:22.464Z,23.85
2022-11-21T15:56:49.171Z,27.02
2022-11-21T15:59:15.876Z,26.95
2022-11-21T16:01:42.853Z,32.53
2022-11-21T16:04:13.347Z,31.15
2022-11-21T16:06:39.884Z,33.92
2022-11-21T16:09:06.384Z,29.27
2022-11-21T16:11:36.780Z,36.65
2022-11-21T16:14:05.553Z,27.92
2022-11-21T16:16:37.281Z,28.08
2022-11-21T16:19:06.676Z,29.17
2022-11-21T16:21:33.230Z,35.35
2022-11-21T16:23:59.708Z,37.20
2022-11-21T16:26:28.689Z,39.63
2022-11-21T16:28:56.027Z,36.17
2022-11-21T16:31:25.312Z,32.22
2022-11-21T16:33:52.016Z,33.05
2022-11-21T16:36:23.625Z,35.60
2022-11-21T16:38:50.342Z,31.45
2022-11-21T16:41:19.372Z,28.05
2022-11-21T16:43:49.589Z,26.38
2022-11-21T16:46:16.926Z,30.98
2022-11-21T16:48:43.715Z,30.95
2022-11-21T16:51:20.229Z,31.67
2022-11-21T16:53:49.081Z,34.78
2022-11-21T16:56:16.306Z,38.88
2022-11-21T16:58:42.986Z,34.38
2022-11-21T17:01:18.154Z,33.08
2022-11-21T17:06:13.698Z,31.60
2022-11-21T17:08:40.692Z,34.03
2022-11-21T17:11:16.212Z,33.05
2022-11-21T17:13:44.702Z,29.42
2022-11-21T17:16:12.476Z,31.23
2022-11-21T17:18:39.723Z,29.38
2022-11-21T17:21:12.149Z,27.63
2022-11-21T17:23:41.769Z,26.08
2022-11-21T17:26:10.876Z,25.98
2022-11-21T17:28:41.008Z,23.63
2022-11-21T17:31:15.919Z,25.10
2022-11-21T17:33:43.520Z,24.05
2022-11-21T17:36:14.499Z,31.55
2022-11-21T17:38:42.471Z,33.67
2022-11-21T17:41:12.048Z,35.13
2022-11-21T17:43:38.829Z,24.08
2022-11-21T17:46:09.966Z,21.85
2022-11-21T17:48:37.798Z,23.95
2022-11-21T17:51:12.909Z,24.48
2022-11-21T17:53:44.581Z,25.48
2022-11-21T17:56:14.105Z,23.83
2022-11-21T17:58:41.031Z,20.90
2022-11-21T18:01:10.512Z,28.52
2022-11-21T18:03:37.212Z,20.38
2022-11-21T18:06:09.208Z,24.88
2022-11-21T18:08:37.764Z,20.98
2022-11-21T18:11:06.165Z,26.25
2022-11-21T18:13:33.632Z,22.88
2022-11-21T18:16:01.868Z,26.42
2022-11-21T18:18:28.691Z,25.45
2022-11-21T18:20:55.140Z,19.02
2022-11-21T18:23:21.641Z,22.27
2022-11-21T18:25:48.136Z,29.42
2022-11-21T18:28:14.604Z,23.13
2022-11-21T18:30:41.159Z,25.20
2022-11-21T18:33:07.681Z,27.08
2022-11-21T18:35:34.139Z,27.05
2022-11-21T18:38:00.642Z,26.40
2022-11-21T18:40:27.169Z,28.95
2022-11-21T18:42:53.687Z,34.30
2022-11-21T18:45:20.443Z,26.23
2022-11-21T18:47:47.820Z,31.42
2022-11-21T18:50:15.708Z,33.72
2022-11-21T18:52:46.432Z,28.63
2022-11-21T18:55:13.402Z,24.80
2022-11-21T18:57:39.893Z,21.38
2022-11-21T19:00:07.357Z,27.13
2022-11-21T19:02:34.070Z,29.00
2022-11-21T19:05:00.535Z,29.77
2022-11-21T19:07:27.134Z,26.45
2022-11-21T19:09:53.651Z,24.92
2022-11-21T19:12:20.163Z,21.80
2022-11-21T19:14:46.662Z,22.40
2022-11-21T19:17:13.108Z,22.52
2022-11-21T19:19:39.607Z,25.77
2022-11-21T19:22:06.346Z,28.38
2022-11-21T19:24:33.425Z,30.95
2022-11-21T19:26:59.974Z,37.22
2022-11-21T19:29:26.913Z,30.10
2022-11-21T19:31:53.602Z,24.55
2022-11-21T19:34:20.144Z,27.30
2022-11-21T19:36:46.654Z,29.63
2022-11-21T19:39:13.588Z,25.13
2022-11-21T19:41:40.363Z,30.05
2022-11-21T19:44:07.000Z,29.23
2022-11-21T19:46:36.752Z,34.63
2022-11-21T19:49:04.249Z,25.67
2022-11-21T19:51:33.561Z,29.00
2022-11-21T19:54:02.629Z,23.92
2022-11-21T19:56:29.225Z,26.58
2022-11-21T19:58:56.902Z,29.50
2022-11-21T20:01:26.002Z,19.40
2022-11-21T20:03:55.654Z,22.33
2022-11-21T20:06:33.748Z,23.00
2022-11-21T20:09:05.617Z,21.85
2022-11-21T20:11:33.102Z,18.83
2022-11-21T20:13:59.724Z,20.08
2022-11-21T20:16:27.336Z,21.75
2022-11-21T20:18:57.961Z,21.30
2022-11-21T20:21:24.816Z,18.58
2022-11-21T20:23:51.763Z,20.05
2022-11-21T20:26:20.507Z,22.40
2022-11-21T20:28:47.594Z,20.95
2022-11-21T20:31:17.113Z,17.73
2022-11-21T20:33:45.778Z,18.88
2022-11-21T20:36:17.284Z,16.05
2022-11-21T20:38:49.052Z,18.60
2022-11-21T20:41:15.627Z,20.42
2022-11-21T20:44:25.168Z,16.42
2022-11-21T20:46:29.460Z,14.25
2022-11-21T20:48:56.707Z,15.65
2022-11-21T20:54:10.434Z,12.57
2022-11-21T20:56:38.680Z,16.77
2022-11-21T20:59:07.829Z,18.98
2022-11-21T21:01:34.447Z,15.65
2022-11-21T21:04:00.881Z,18.10
2022-11-21T21:06:27.388Z,13.65
2022-11-21T21:08:53.856Z,16.65
2022-11-21T21:11:50.463Z,19.38
2022-11-21T21:14:09.664Z,20.40
2022-11-21T21:16:36.312Z,17.02
2022-11-21T21:19:02.854Z,15.02
2022-11-21T21:21:33.010Z,14.77
2022-11-21T21:24:05.629Z,16.25
2022-11-21T21:26:43.859Z,14.15
2022-11-21T21:29:12.578Z,18.05
2022-11-21T21:31:40.230Z,16.92
2022-11-21T21:34:10.077Z,14.32
2022-11-21T21:36:36.752Z,13.23
2022-11-21T21:39:03.966Z,15.20
2022-11-21T21:41:31.301Z,18.25
2022-11-21T21:43:58.145Z,13.30
2022-11-21T21:46:26.677Z,16.02
2022-11-21T21:48:55.892Z,16.55
2022-11-21T21:51:27.841Z,18.20
2022-11-21T21:53:55.904Z,17.98
2022-11-21T21:56:24.545Z,14.30
2022-11-21T21:58:51.372Z,14.55
2022-11-21T22:01:32.217Z,19.58
2022-11-21T22:04:01.191Z,11.88
2022-11-21T22:06:28.312Z,17.35
2022-11-21T22:08:55.867Z,16.63
2022-11-21T22:11:23.630Z,15.82
2022-11-21T22:13:59.381Z,14.57
2022-11-21T22:16:26.277Z,8.27
2022-11-21T22:18:53.221Z,8.30
2022-11-21T22:21:20.895Z,14.77
2022-11-21T22:24:24.372Z,14.45
2022-11-21T22:26:34.485Z,9.82
2022-11-21T22:29:00.911Z,12.50
2022-11-21T22:31:30.134Z,11.15
2022-11-21T22:33:57.232Z,10.85
2022-11-21T22:36:23.676Z,8.70
2022-11-21T22:38:53.962Z,14.10
2022-11-21T22:41:23.026Z,11.48
2022-11-21T22:43:51.324Z,9.77
2022-11-21T22:46:18.037Z,5.55
2022-11-21T22:48:44.577Z,13.32
2022-11-21T22:51:15.118Z,11.13
2022-11-21T22:53:41.601Z,9.20
2022-11-21T22:56:10.621Z,9.43
2022-11-21T22:58:39.473Z,4.28
2022-11-21T23:01:10.412Z,9.07
2022-11-21T23:03:36.888Z,8.90
2022-11-21T23:06:05.899Z,6.50
2022-11-21T23:08:33.468Z,12.73
2022-11-21T23:11:08.371Z,7.53
2022-11-21T23:13:35.972Z,4.13
2022-11-21T23:16:03.928Z,5.65
2022-11-21T23:18:32.995Z,8.77
2022-11-21T23:21:00.410Z,8.73
2022-11-21T23:23:27.637Z,8.20
2022-11-21T23:25:54.277Z,12.05
2022-11-21T23:28:20.820Z,9.63
2022-11-21T23:30:48.987Z,12.57
2022-11-21T23:33:16.149Z,6.18
2022-11-21T23:35:43.666Z,11.90
2022-11-21T23:38:11.063Z,9.48
2022-11-21T23:40:37.618Z,4.70
2022-11-21T23:43:04.067Z,11.57
2022-11-21T23:45:30.686Z,2.83
2022-11-21T23:47:57.389Z,8.13
2022-11-21T23:50:23.887Z,8.30
2022-11-21T23:52:50.485Z,11.65
2022-11-21T23:55:17.137Z,6.50
2022-11-21T23:57:48.454Z,3.38
